createdAt,value
2022-08-28T00:01:27.916Z,5.33
2022-08-28T00:03:55.973Z,6.47
2022-08-28T00:06:25.329Z,4.67
2022-08-28T00:08:53.318Z,5.67
2022-08-28T00:11:21.554Z,8.03
2022-08-28T00:13:49.745Z,5.73
2022-08-28T00:16:18.861Z,4.50
2022-08-28T00:18:47.253Z,4.70
2022-08-28T00:21:15.878Z,4.40
2022-08-28T00:23:45.266Z,4.03
2022-08-28T00:26:33.946Z,4.50
2022-08-28T00:29:01.108Z,5.10
2022-08-28T00:31:29.255Z,4.50
2022-08-28T00:33:57.207Z,7.03
2022-08-28T00:36:25.221Z,4.60
2022-08-28T00:38:54.599Z,4.50
2022-08-28T00:41:25.028Z,4.53
2022-08-28T00:44:07.435Z,4.87
2022-08-28T00:46:35.535Z,6.53
2022-08-28T00:49:03.535Z,5.63
2022-08-28T00:51:49.141Z,5.33
2022-08-28T00:54:19.525Z,6.43
2022-08-28T00:56:47.968Z,6.17
2022-08-28T00:59:18.436Z,4.57
2022-08-28T01:01:46.887Z,4.40
2022-08-28T01:04:16.118Z,4.87
2022-08-28T01:06:44.517Z,6.80
2022-08-28T01:09:13.238Z,5.87
2022-08-28T01:11:44.194Z,7.77
2022-08-28T01:14:13.916Z,5.80
2022-08-28T01:16:43.097Z,5.10
2022-08-28T01:19:14.376Z,4.67
2022-08-28T01:21:48.456Z,6.03
2022-08-28T01:24:18.649Z,5.53
2022-08-28T01:26:47.536Z,6.00
2022-08-28T01:29:15.586Z,5.00
2022-08-28T01:31:43.975Z,5.20
2022-08-28T01:34:13.226Z,3.97
2022-08-28T01:36:41.191Z,4.83
2022-08-28T01:39:10.123Z,4.43
2022-08-28T01:41:41.673Z,6.30
2022-08-28T01:44:10.073Z,5.00
2022-08-28T01:46:38.180Z,4.17
2022-08-28T01:49:07.451Z,4.40
2022-08-28T01:51:38.133Z,5.70
2022-08-28T01:54:06.384Z,4.90
2022-08-28T01:56:35.142Z,4.37
2022-08-28T01:59:06.203Z,3.87
2022-08-28T02:01:34.439Z,7.37
2022-08-28T02:04:04.536Z,3.77
2022-08-28T02:06:33.045Z,3.53
2022-08-28T02:09:01.008Z,4.00
2022-08-28T02:11:29.837Z,4.17
2022-08-28T02:13:57.904Z,3.83
2022-08-28T02:16:29.140Z,4.23
2022-08-28T02:18:57.090Z,3.40
2022-08-28T02:21:25.412Z,4.90
2022-08-28T02:23:53.609Z,4.50
2022-08-28T02:26:21.838Z,6.27
2022-08-28T02:28:50.149Z,3.80
2022-08-28T02:31:18.367Z,4.07
2022-08-28T02:33:47.787Z,3.43
2022-08-28T02:36:17.101Z,4.80
2022-08-28T02:38:45.730Z,4.90
2022-08-28T02:41:13.694Z,3.37
2022-08-28T02:43:41.621Z,3.50
2022-08-28T02:46:09.854Z,3.70
2022-08-28T02:48:38.923Z,5.50
2022-08-28T02:51:09.879Z,3.37
2022-08-28T02:53:38.224Z,4.40
2022-08-28T02:56:06.405Z,3.80
2022-08-28T02:58:34.752Z,5.43
2022-08-28T03:01:03.501Z,4.00
2022-08-28T03:03:33.026Z,3.70
2022-08-28T03:06:01.208Z,3.97
2022-08-28T03:08:31.741Z,4.50
2022-08-28T03:10:59.935Z,3.97
2022-08-28T03:13:28.196Z,4.37
2022-08-28T03:15:56.330Z,3.83
2022-08-28T03:18:25.374Z,4.30
2022-08-28T03:20:53.504Z,3.43
2022-08-28T03:23:27.597Z,3.93
2022-08-28T03:25:58.473Z,3.67
2022-08-28T03:28:27.048Z,5.80
2022-08-28T03:30:55.526Z,4.00
2022-08-28T03:33:23.661Z,3.80
2022-08-28T03:35:52.035Z,3.13
2022-08-28T03:38:20.079Z,3.10
2022-08-28T03:40:48.416Z,3.70
2022-08-28T03:43:18.751Z,4.03
2022-08-28T03:45:53.131Z,3.50
2022-08-28T03:48:21.391Z,3.50
2022-08-28T03:50:49.349Z,4.47
2022-08-28T03:53:19.904Z,4.13
2022-08-28T03:55:47.824Z,4.27
2022-08-28T03:58:18.842Z,5.23
2022-08-28T04:00:47.749Z,4.37
2022-08-28T04:03:15.972Z,3.70
2022-08-28T04:05:44.575Z,7.50
2022-08-28T04:08:15.995Z,5.30
2022-08-28T04:10:44.223Z,4.17
2022-08-28T04:13:12.516Z,5.63
2022-08-28T04:15:42.279Z,4.20
2022-08-28T04:18:10.252Z,6.03
2022-08-28T04:20:38.650Z,5.73
2022-08-28T04:23:09.974Z,3.83
2022-08-28T04:25:40.888Z,3.40
2022-08-28T04:28:08.844Z,5.53
2022-08-28T04:30:36.793Z,5.77
2022-08-28T04:33:06.666Z,6.77
2022-08-28T04:35:34.599Z,4.00
2022-08-28T04:38:05.474Z,4.90
2022-08-28T04:40:33.722Z,5.30
2022-08-28T04:43:01.695Z,3.70
2022-08-28T04:45:29.671Z,4.40
2022-08-28T04:47:58.257Z,4.77
2022-08-28T04:50:29.581Z,3.87
2022-08-28T04:52:58.580Z,3.50
2022-08-28T04:55:39.479Z,4.00
2022-08-28T04:58:14.756Z,4.93
2022-08-28T05:00:43.618Z,4.40
2022-08-28T05:03:11.978Z,5.30
2022-08-28T05:05:44.787Z,4.23
2022-08-28T05:08:13.290Z,4.70
2022-08-28T05:10:41.878Z,5.27
2022-08-28T05:13:10.083Z,5.27
2022-08-28T05:15:39.463Z,5.07
2022-08-28T05:18:07.485Z,6.70
2022-08-28T05:20:36.887Z,4.20
2022-08-28T05:23:07.594Z,6.13
2022-08-28T05:25:36.223Z,4.47
2022-08-28T05:28:06.169Z,5.27
2022-08-28T05:30:38.621Z,8.37
2022-08-28T05:33:07.450Z,6.77
2022-08-28T05:35:35.593Z,4.10
2022-08-28T05:38:03.673Z,3.47
2022-08-28T05:40:33.077Z,4.50
2022-08-28T05:43:01.006Z,3.70
2022-08-28T05:45:29.082Z,4.13
2022-08-28T05:47:57.663Z,3.70
2022-08-28T05:50:25.748Z,5.13
2022-08-28T05:52:53.670Z,5.67
2022-08-28T05:55:21.582Z,5.73
2022-08-28T05:57:51.068Z,5.47
2022-08-28T06:00:19.100Z,4.87
2022-08-28T06:02:47.038Z,4.70
2022-08-28T06:05:14.995Z,4.27
2022-08-28T06:07:43.284Z,5.20
2022-08-28T06:10:11.311Z,4.63
2022-08-28T06:12:39.281Z,4.97
2022-08-28T06:15:10.551Z,8.27
2022-08-28T06:17:38.611Z,6.60
2022-08-28T06:20:07.531Z,4.10
2022-08-28T06:22:35.607Z,4.33
2022-08-28T06:25:06.422Z,9.97
2022-08-28T06:27:36.916Z,7.67
2022-08-28T06:30:05.168Z,4.93
2022-08-28T06:32:34.602Z,4.93
2022-08-28T06:35:02.532Z,4.50
2022-08-28T06:37:30.459Z,4.90
2022-08-28T06:39:58.493Z,5.07
2022-08-28T06:42:28.429Z,4.63
2022-08-28T06:44:56.336Z,6.40
2022-08-28T06:47:24.308Z,8.97
2022-08-28T06:49:54.623Z,6.33
2022-08-28T06:52:22.544Z,6.67
2022-08-28T06:54:55.509Z,7.10
2022-08-28T06:57:23.975Z,8.30
2022-08-28T06:59:52.055Z,6.90
2022-08-28T07:02:20.222Z,6.60
2022-08-28T07:04:53.772Z,6.80
2022-08-28T07:07:31.541Z,7.03
2022-08-28T07:10:00.685Z,5.70
2022-08-28T07:12:28.611Z,7.73
2022-08-28T07:14:56.545Z,8.20
2022-08-28T07:17:24.489Z,7.80
2022-08-28T07:19:53.843Z,9.77
2022-08-28T07:22:22.012Z,8.97
2022-08-28T07:24:50.114Z,6.67
2022-08-28T07:27:19.114Z,9.20
2022-08-28T07:29:47.215Z,9.03
2022-08-28T07:32:15.959Z,9.50
2022-08-28T07:34:43.971Z,9.93
2022-08-28T07:37:15.343Z,11.20
2022-08-28T07:39:43.466Z,7.33
2022-08-28T07:42:35.462Z,7.77
2022-08-28T07:45:02.999Z,9.13
2022-08-28T07:47:32.153Z,9.57
2022-08-28T07:50:01.696Z,9.23
2022-08-28T07:52:31.033Z,8.00
2022-08-28T07:54:59.384Z,8.60
2022-08-28T07:57:27.394Z,7.93
2022-08-28T07:59:55.324Z,6.83
2022-08-28T08:02:23.255Z,8.23
2022-08-28T08:04:51.215Z,9.50
2022-08-28T08:07:20.064Z,10.00
2022-08-28T08:09:49.510Z,7.73
2022-08-28T08:12:18.093Z,9.47
2022-08-28T08:14:46.063Z,11.30
2022-08-28T08:17:14.366Z,7.43
2022-08-28T08:19:42.279Z,8.80
2022-08-28T08:22:10.342Z,8.80
2022-08-28T08:24:38.275Z,7.33
2022-08-28T08:27:08.086Z,10.37
2022-08-28T08:29:37.296Z,7.80
2022-08-28T08:32:07.222Z,10.63
2022-08-28T08:34:36.668Z,10.73
2022-08-28T08:37:05.917Z,8.13
2022-08-28T08:39:33.982Z,9.70
2022-08-28T08:42:04.124Z,10.83
2022-08-28T08:44:34.635Z,7.80
2022-08-28T08:47:13.833Z,8.77
2022-08-28T08:49:44.904Z,9.00
2022-08-28T08:52:30.645Z,8.83
2022-08-28T08:55:07.367Z,9.73
2022-08-28T08:57:36.231Z,9.07
2022-08-28T09:00:10.220Z,10.63
2022-08-28T09:02:44.642Z,7.60
2022-08-28T09:05:14.686Z,9.50
2022-08-28T09:07:49.192Z,7.50
2022-08-28T09:10:19.761Z,8.17
2022-08-28T09:12:53.029Z,10.40
2022-08-28T09:15:27.783Z,9.33
2022-08-28T09:17:57.199Z,9.67
2022-08-28T09:20:32.273Z,7.80
2022-08-28T09:23:02.171Z,8.33
2022-08-28T09:25:51.564Z,7.73
2022-08-28T09:28:20.738Z,9.63
2022-08-28T09:30:55.796Z,7.70
2022-08-28T09:33:30.725Z,6.80
2022-08-28T09:35:58.815Z,7.27
2022-08-28T09:38:28.662Z,6.80
2022-08-28T09:41:25.106Z,8.10
2022-08-28T09:43:53.309Z,7.03
2022-08-28T09:46:25.625Z,7.27
2022-08-28T09:48:53.599Z,7.00
2022-08-28T09:51:29.549Z,8.20
2022-08-28T09:54:00.817Z,8.87
2022-08-28T09:56:29.887Z,9.00
2022-08-28T09:58:59.876Z,7.37
2022-08-28T10:01:32.854Z,7.47
2022-08-28T10:04:07.786Z,7.43
2022-08-28T10:06:37.290Z,7.57
2022-08-28T10:09:12.112Z,7.83
2022-08-28T10:11:44.502Z,8.83
2022-08-28T10:14:16.630Z,6.00
2022-08-28T10:16:49.891Z,6.33
2022-08-28T10:19:24.433Z,6.93
2022-08-28T10:21:55.465Z,8.43
2022-08-28T10:24:38.142Z,7.17
2022-08-28T10:27:10.908Z,8.50
2022-08-28T10:29:48.390Z,8.50
2022-08-28T10:32:35.809Z,6.50
2022-08-28T10:35:07.099Z,9.00
2022-08-28T10:37:41.736Z,6.67
2022-08-28T10:40:11.936Z,7.63
2022-08-28T10:42:41.174Z,5.43
2022-08-28T10:45:12.051Z,5.47
2022-08-28T10:47:43.645Z,8.17
2022-08-28T10:50:13.461Z,8.43
2022-08-28T10:52:43.116Z,5.90
2022-08-28T10:55:13.186Z,6.57
2022-08-28T10:57:42.929Z,6.07
2022-08-28T11:00:12.931Z,7.23
2022-08-28T11:02:43.453Z,8.20
2022-08-28T11:05:11.763Z,9.60
2022-08-28T11:07:41.752Z,7.47
2022-08-28T11:10:20.618Z,6.65
2022-08-28T11:12:49.803Z,6.95
2022-08-28T11:15:37.331Z,6.60
2022-08-28T11:18:26.913Z,6.10
2022-08-28T11:20:58.196Z,6.45
2022-08-28T11:23:38.592Z,6.33
2022-08-28T11:26:09.312Z,6.73
2022-08-28T11:28:44.816Z,7.27
2022-08-28T11:31:29.157Z,6.30
2022-08-28T11:34:01.120Z,10.07
2022-08-28T11:36:47.451Z,9.93
2022-08-28T11:39:22.640Z,6.67
2022-08-28T11:42:09.100Z,6.43
2022-08-28T11:44:42.520Z,8.03
2022-08-28T11:47:28.955Z,6.27
2022-08-28T11:50:04.308Z,6.47
2022-08-28T11:52:40.061Z,5.63
2022-08-28T11:55:13.866Z,7.00
2022-08-28T11:57:51.443Z,7.78
2022-08-28T12:00:23.667Z,6.82
2022-08-28T12:02:54.407Z,7.00
2022-08-28T12:05:45.156Z,7.37
2022-08-28T12:08:14.032Z,6.07
2022-08-28T12:10:58.999Z,7.37
2022-08-28T12:13:47.226Z,6.97
2022-08-28T12:16:15.844Z,7.77
2022-08-28T12:19:03.585Z,6.03
2022-08-28T12:21:37.035Z,6.83
2022-08-28T12:24:09.009Z,5.73
2022-08-28T12:26:40.098Z,5.77
2022-08-28T12:29:09.374Z,9.20
2022-08-28T12:32:13.729Z,5.63
2022-08-28T12:34:46.553Z,4.93
2022-08-28T12:37:36.907Z,7.07
2022-08-28T12:40:22.762Z,5.73
2022-08-28T12:42:55.339Z,6.07
2022-08-28T12:45:25.492Z,5.00
2022-08-28T12:47:54.986Z,5.30
2022-08-28T12:50:28.232Z,5.35
2022-08-28T12:52:57.580Z,4.70
2022-08-28T12:55:27.070Z,5.07
2022-08-28T12:57:55.148Z,4.88
2022-08-28T13:00:24.480Z,6.15
2022-08-28T13:02:54.553Z,6.22
2022-08-28T13:05:25.285Z,5.40
2022-08-28T13:07:55.208Z,4.75
2022-08-28T13:10:24.661Z,4.32
2022-08-28T13:12:59.706Z,4.88
2022-08-28T13:15:48.942Z,4.40
2022-08-28T13:18:35.962Z,4.72
2022-08-28T13:21:15.055Z,5.78
2022-08-28T13:23:42.967Z,6.13
2022-08-28T13:26:11.988Z,7.07
2022-08-28T13:28:42.583Z,5.07
2022-08-28T13:31:21.798Z,5.85
2022-08-28T13:34:03.294Z,6.97
2022-08-28T13:36:39.017Z,4.63
2022-08-28T13:39:07.098Z,4.32
2022-08-28T13:41:35.152Z,4.93
2022-08-28T13:44:04.851Z,4.13
2022-08-28T13:46:32.902Z,4.40
2022-08-28T13:49:00.878Z,4.70
2022-08-28T13:51:29.166Z,4.30
2022-08-28T13:53:58.218Z,4.95
2022-08-28T13:56:28.791Z,5.40
2022-08-28T13:58:58.057Z,4.25
2022-08-28T14:01:48.500Z,4.40
2022-08-28T14:04:15.465Z,4.20
2022-08-28T14:06:44.494Z,4.47
2022-08-28T14:09:17.564Z,4.47
2022-08-28T14:11:46.260Z,4.43
2022-08-28T14:14:14.273Z,5.25
2022-08-28T14:16:45.219Z,3.90
2022-08-28T14:19:13.606Z,3.70
2022-08-28T14:21:42.288Z,4.22
2022-08-28T14:24:10.257Z,4.07
2022-08-28T14:26:38.283Z,5.47
2022-08-28T14:29:07.576Z,4.57
2022-08-28T14:31:37.192Z,4.88
2022-08-28T14:34:06.624Z,3.70
2022-08-28T14:36:34.632Z,4.15
2022-08-28T14:39:06.194Z,4.75
2022-08-28T14:41:34.578Z,4.18
2022-08-28T14:44:02.972Z,7.47
2022-08-28T14:46:32.524Z,3.85
2022-08-28T14:49:02.389Z,4.38
2022-08-28T14:51:33.188Z,4.50
2022-08-28T14:54:01.698Z,3.65
2022-08-28T14:56:31.073Z,4.25
2022-08-28T14:59:00.353Z,3.75
2022-08-28T15:01:39.542Z,4.18
2022-08-28T15:04:11.168Z,4.10
2022-08-28T15:06:42.639Z,6.22
2022-08-28T15:09:11.123Z,3.80
2022-08-28T15:11:39.397Z,4.25
2022-08-28T15:14:09.051Z,3.72
2022-08-28T15:16:39.599Z,4.00
2022-08-28T15:19:11.848Z,4.38
2022-08-28T15:21:42.518Z,4.25
2022-08-28T15:24:11.020Z,4.10
2022-08-28T15:26:40.250Z,3.80
2022-08-28T15:29:08.585Z,6.25
2022-08-28T15:31:38.177Z,4.20
2022-08-28T15:34:13.241Z,4.53
2022-08-28T15:36:43.677Z,3.80
2022-08-28T15:39:29.619Z,4.25
2022-08-28T15:41:57.855Z,5.90
2022-08-28T15:44:25.796Z,4.40
2022-08-28T15:46:54.632Z,3.97
2022-08-28T15:49:23.917Z,4.30
2022-08-28T15:51:53.940Z,4.63
2022-08-28T15:54:22.343Z,5.38
2022-08-28T15:56:50.681Z,3.83
2022-08-28T15:59:20.895Z,4.18
2022-08-28T16:01:48.932Z,5.35
2022-08-28T16:04:17.001Z,4.47
2022-08-28T16:06:46.103Z,4.03
2022-08-28T16:09:15.508Z,4.05
2022-08-28T16:11:44.142Z,4.30
2022-08-28T16:14:12.232Z,7.15
2022-08-28T16:16:40.294Z,3.42
2022-08-28T16:19:14.593Z,3.85
2022-08-28T16:21:42.799Z,3.85
2022-08-28T16:24:10.760Z,3.50
2022-08-28T16:26:40.112Z,3.47
2022-08-28T16:29:08.176Z,4.30
2022-08-28T16:31:36.118Z,3.60
2022-08-28T16:34:04.666Z,4.38
2022-08-28T16:36:33.434Z,3.67
2022-08-28T16:39:03.717Z,3.63
2022-08-28T16:41:32.290Z,3.80
2022-08-28T16:44:01.664Z,5.70
2022-08-28T16:46:30.126Z,3.75
2022-08-28T16:48:58.159Z,6.07
2022-08-28T16:51:27.125Z,4.28
2022-08-28T16:53:55.067Z,4.07
2022-08-28T16:56:23.799Z,4.88
2022-08-28T16:58:53.095Z,3.80
2022-08-28T17:01:24.060Z,3.60
2022-08-28T17:03:52.937Z,3.83
2022-08-28T17:06:23.501Z,3.58
2022-08-28T17:08:56.047Z,4.00
2022-08-28T17:11:25.540Z,5.53
2022-08-28T17:13:53.509Z,3.50
2022-08-28T17:16:23.822Z,3.63
2022-08-28T17:18:52.491Z,3.80
2022-08-28T17:21:38.201Z,5.25
2022-08-28T17:24:06.955Z,5.55
2022-08-28T17:26:34.904Z,3.58
2022-08-28T17:29:03.193Z,3.63
2022-08-28T17:31:32.729Z,3.58
2022-08-28T17:34:00.741Z,7.07
2022-08-28T17:36:33.094Z,5.85
2022-08-28T17:39:03.000Z,4.05
2022-08-28T17:41:31.741Z,5.35
2022-08-28T17:44:00.775Z,3.50
2022-08-28T17:46:30.217Z,4.28
2022-08-28T17:49:02.562Z,3.70
2022-08-28T17:51:33.173Z,4.40
2022-08-28T17:54:12.001Z,4.03
2022-08-28T17:56:40.308Z,3.75
2022-08-28T17:59:08.221Z,5.35
2022-08-28T18:01:36.299Z,4.90
2022-08-28T18:04:06.381Z,6.75
2022-08-28T18:06:34.787Z,4.60
2022-08-28T18:09:02.784Z,4.45
2022-08-28T18:11:30.775Z,4.15
2022-08-28T18:13:59.876Z,7.30
2022-08-28T18:16:31.512Z,5.25
2022-08-28T18:18:59.922Z,4.10
2022-08-28T18:21:29.378Z,4.88
2022-08-28T18:23:57.372Z,6.80
2022-08-28T18:26:25.338Z,5.18
2022-08-28T18:28:53.508Z,4.75
2022-08-28T18:31:21.569Z,3.63
2022-08-28T18:33:49.687Z,3.83
2022-08-28T18:36:17.777Z,4.38
2022-08-28T18:38:47.431Z,7.63
2022-08-28T18:41:15.403Z,6.68
2022-08-28T18:43:43.327Z,8.05
2022-08-28T18:46:11.802Z,5.07
2022-08-28T18:48:40.402Z,4.88
2022-08-28T18:51:08.996Z,4.53
2022-08-28T18:53:37.595Z,6.85
2022-08-28T18:56:08.819Z,4.90
2022-08-28T18:58:38.511Z,4.38
2022-08-28T19:01:08.371Z,4.70
2022-08-28T19:03:36.781Z,4.45
2022-08-28T19:06:06.390Z,4.63
2022-08-28T19:08:35.487Z,4.43
2022-08-28T19:11:07.744Z,4.07
2022-08-28T19:13:37.560Z,4.63
2022-08-28T19:16:06.014Z,6.47
2022-08-28T19:18:34.104Z,4.20
2022-08-28T19:21:05.675Z,6.80
2022-08-28T19:23:33.790Z,9.27
2022-08-28T19:26:01.719Z,5.32
2022-08-28T19:28:29.940Z,9.18
2022-08-28T19:30:59.304Z,6.35
2022-08-28T19:33:27.328Z,6.78
2022-08-28T19:35:55.713Z,9.30
2022-08-28T19:38:23.719Z,6.67
2022-08-28T19:40:51.714Z,6.33
2022-08-28T19:43:19.663Z,5.57
2022-08-28T19:45:48.248Z,5.10
2022-08-28T19:48:17.748Z,5.40
2022-08-28T19:50:45.764Z,6.13
2022-08-28T19:53:13.688Z,6.63
2022-08-28T19:55:41.693Z,7.83
2022-08-28T19:58:10.460Z,4.37
2022-08-28T20:00:38.461Z,5.47
2022-08-28T20:03:06.575Z,7.07
2022-08-28T20:05:37.117Z,5.60
2022-08-28T20:08:06.582Z,6.17
2022-08-28T20:10:34.523Z,4.77
2022-08-28T20:13:02.871Z,4.93
2022-08-28T20:15:30.940Z,9.83
2022-08-28T20:17:59.017Z,6.73
2022-08-28T20:20:29.981Z,5.50
2022-08-28T20:22:59.532Z,5.37
2022-08-28T20:25:27.561Z,6.27
2022-08-28T20:27:59.553Z,5.60
2022-08-28T20:30:29.601Z,5.87
2022-08-28T20:32:57.732Z,5.63
2022-08-28T20:35:27.477Z,7.73
2022-08-28T20:37:55.901Z,6.17
2022-08-28T20:40:25.454Z,5.83
2022-08-28T20:42:53.505Z,4.90
2022-08-28T20:45:22.216Z,5.93
2022-08-28T20:47:50.210Z,6.37
2022-08-28T20:50:18.215Z,6.73
2022-08-28T20:52:46.198Z,6.07
2022-08-28T20:55:15.074Z,7.60
2022-08-28T20:57:44.465Z,4.90
2022-08-28T21:00:12.967Z,5.43
2022-08-28T21:02:41.161Z,7.33
2022-08-28T21:05:09.539Z,4.63
2022-08-28T21:07:37.985Z,5.10
2022-08-28T21:10:08.014Z,5.70
2022-08-28T21:12:36.532Z,5.57
2022-08-28T21:15:06.464Z,7.50
2022-08-28T21:17:34.606Z,8.80
2022-08-28T21:20:04.329Z,4.67
2022-08-28T21:22:32.809Z,5.93
2022-08-28T21:25:01.335Z,5.27
2022-08-28T21:27:29.330Z,5.10
2022-08-28T21:29:58.438Z,4.63
2022-08-28T21:32:27.916Z,4.30
2022-08-28T21:34:56.191Z,4.90
2022-08-28T21:37:24.141Z,4.87
2022-08-28T21:39:52.278Z,5.33
2022-08-28T21:42:22.048Z,7.03
2022-08-28T21:44:51.917Z,6.40
2022-08-28T21:47:21.579Z,4.60
2022-08-28T21:49:51.448Z,4.40
2022-08-28T21:52:20.052Z,8.30
2022-08-28T21:54:48.074Z,6.77
2022-08-28T21:57:16.047Z,4.27
2022-08-28T21:59:44.207Z,4.50
2022-08-28T22:02:12.191Z,4.13
2022-08-28T22:04:40.179Z,4.73
2022-08-28T22:07:11.342Z,4.60
2022-08-28T22:09:39.264Z,4.27
2022-08-28T22:12:08.237Z,3.77
2022-08-28T22:14:36.784Z,4.70
2022-08-28T22:17:08.890Z,5.23
2022-08-28T22:19:39.270Z,5.10
2022-08-28T22:22:24.834Z,6.47
2022-08-28T22:24:54.242Z,4.33
2022-08-28T22:27:22.292Z,6.40
2022-08-28T22:29:50.389Z,4.57
2022-08-28T22:32:18.495Z,3.97
2022-08-28T22:34:46.571Z,5.27
2022-08-28T22:37:14.921Z,5.03
2022-08-28T22:39:43.434Z,5.67
2022-08-28T22:42:12.801Z,4.23
2022-08-28T22:44:41.224Z,4.43
2022-08-28T22:47:09.135Z,4.20
2022-08-28T22:49:39.560Z,4.23
2022-08-28T22:52:07.840Z,4.57
2022-08-28T22:54:35.744Z,4.17
2022-08-28T22:57:03.735Z,5.67
2022-08-28T22:59:33.123Z,6.00
2022-08-28T23:02:01.247Z,4.37
2022-08-28T23:04:29.284Z,4.00
2022-08-28T23:06:57.253Z,3.87
2022-08-28T23:09:25.235Z,5.17
2022-08-28T23:11:53.368Z,4.97
2022-08-28T23:14:21.303Z,6.43
2022-08-28T23:16:51.012Z,5.47
2022-08-28T23:19:19.417Z,6.47
2022-08-28T23:21:47.343Z,4.73
2022-08-28T23:24:16.214Z,4.90
2022-08-28T23:26:44.899Z,5.13
2022-08-28T23:29:13.172Z,4.80
2022-08-28T23:31:41.421Z,7.13
2022-08-28T23:34:10.935Z,3.93
2022-08-28T23:36:39.396Z,7.90
2022-08-28T23:39:07.619Z,4.67
2022-08-28T23:41:35.530Z,5.03
2022-08-28T23:44:08.231Z,6.90
2022-08-28T23:46:37.035Z,5.90
2022-08-28T23:49:11.195Z,5.13
2022-08-28T23:51:39.285Z,4.77
2022-08-28T23:54:07.266Z,4.27
2022-08-28T23:56:35.352Z,4.33
2022-08-28T23:59:03.526Z,4.53
